首页
METAR-TAF:

METAR-TAF

机场 :

吉隆坡国际机场

吉隆坡, 马来西亚

纬度: 02-44N, 经度: 101-42E, 海拔: 21米

当前天气观测

该预报发布于26分钟前的17:30 UTC
静风
温度 24°C
湿度 94%
气压 1011 hPa
能見度: 9000
少量云层高于1700英尺, 积雨云.
散云层高于14000英尺
多云层高于28000英尺

METAR: WMKK 231730Z 00000KT 9000 FEW017CB SCT140 BKN280 24/23 Q1011 NOSIG

时间: 01:56 (17:56 UTC)

预报

该预报发布于56分钟前的17:00 UTC
预报有效从23日的 18点(UTC)到 25日的 00点(UTC)
风速5节,风向北转东北
能见度10公里或以上
少量云层高于1700英尺, 积雨云.
几率 30% :
短暂存在
从 23日的 19点(UTC)到 23日的 23点(UTC)
风速5节,风向
能見度: 4000
少量云层高于1500英尺, 积雨云.
散云层高于1800英尺
雷暴, 雨
成为
从 24日的 00点(UTC)到 24日的 01点(UTC)
少量云层高于1800英尺
短暂存在
从 24日的 06点(UTC)到 24日的 10点(UTC)
风速8节,风向南转南东
能見度: 3000
少量云层高于1500英尺, 积雨云.
散云层高于1800英尺
雷暴, 雨

TAF: WMKK 231700Z 2318/2500 03005KT 9999 FEW017CB PROB30 TEMPO 2319/2323 17005KT 4000 TSRA FEW015CB SCT018 BECMG 2400/2401 FEW018 TEMPO 2406/2410 16008KT 3000 TSRA FEW015CB SCT018

超过4000个机场的气象观测和天气预报(METAR&TAF报告)。

可查询的气象台以黄色和红色小点在地图上表示。

将鼠标移到小点上方,可查看气象台名称。

然后点击查看天气观测和预报。

如需切换地图:点击带黑十字的绿色按钮放大地图;点击带横线的绿色按钮缩小地图;或者点击绿色箭头查看邻近地区的地图。


METAR-TAF: